sensor_id;sensor_type;location;lat;lon;timestamp;P1;durP1;ratioP1;P2;durP2;ratioP2
35028;SDS011;35394;54.282;10.070;2024-03-02T00:00:29;7.75;;;5.85;;
35028;SDS011;35394;54.282;10.070;2024-03-02T00:01:00;8.00;;;5.77;;
35028;SDS011;35394;54.282;10.070;2024-03-02T00:01:31;7.40;;;5.68;;
35028;SDS011;35394;54.282;10.070;2024-03-02T00:02:01;7.20;;;5.50;;
35028;SDS011;35394;54.282;10.070;2024-03-02T00:02:32;7.40;;;5.55;;
35028;SDS011;35394;54.282;10.070;2024-03-02T00:03:02;7.23;;;5.43;;
35028;SDS011;35394;54.282;10.070;2024-03-02T00:03:33;7.90;;;5.77;;
35028;SDS011;35394;54.282;10.070;2024-03-02T00:04:04;6.90;;;5.55;;
35028;SDS011;35394;54.282;10.070;2024-03-02T00:04:36;6.90;;;5.18;;
35028;SDS011;35394;54.282;10.070;2024-03-02T00:05:07;6.57;;;5.20;;
35028;SDS011;35394;54.282;10.070;2024-03-02T00:05:39;7.65;;;5.60;;
35028;SDS011;35394;54.282;10.070;2024-03-02T00:06:10;7.20;;;5.67;;
35028;SDS011;35394;54.282;10.070;2024-03-02T00:06:40;6.72;;;5.18;;
35028;SDS011;35394;54.282;10.070;2024-03-02T00:07:11;7.17;;;5.10;;
35028;SDS011;35394;54.282;10.070;2024-03-02T00:07:45;6.35;;;5.00;;
35028;SDS011;35394;54.282;10.070;2024-03-02T00:08:22;6.90;;;5.35;;
35028;SDS011;35394;54.282;10.070;2024-03-02T00:08:56;6.72;;;5.03;;
35028;SDS011;35394;54.282;10.070;2024-03-02T00:09:28;6.60;;;5.20;;
35028;SDS011;35394;54.282;10.070;2024-03-02T00:09:59;6.55;;;5.03;;
35028;SDS011;35394;54.282;10.070;2024-03-02T00:10:39;6.93;;;5.15;;
35028;SDS011;35394;54.282;10.070;2024-03-02T00:11:10;6.60;;;5.20;;
35028;SDS011;35394;54.282;10.070;2024-03-02T00:11:41;6.60;;;5.07;;
35028;SDS011;35394;54.282;10.070;2024-03-02T00:12:15;7.20;;;5.30;;
35028;SDS011;35394;54.282;10.070;2024-03-02T00:12:46;6.18;;;4.78;;
35028;SDS011;35394;54.282;10.070;2024-03-02T00:13:20;6.13;;;4.78;;
35028;SDS011;35394;54.282;10.070;2024-03-02T00:13:53;7.60;;;5.53;;
35028;SDS011;35394;54.282;10.070;2024-03-02T00:14:24;6.13;;;5.18;;
35028;SDS011;35394;54.282;10.070;2024-03-02T00:14:54;7.60;;;5.50;;
35028;SDS011;35394;54.282;10.070;2024-03-02T00:15:33;7.53;;;5.50;;
35028;SDS011;35394;54.282;10.070;2024-03-02T00:16:29;7.40;;;5.60;;
35028;SDS011;35394;54.282;10.070;2024-03-02T00:17:02;7.30;;;5.40;;
35028;SDS011;35394;54.282;10.070;2024-03-02T00:17:33;7.05;;;5.40;;
35028;SDS011;35394;54.282;10.070;2024-03-02T00:18:04;6.70;;;5.40;;
35028;SDS011;35394;54.282;10.070;2024-03-02T00:18:35;6.15;;;4.88;;
35028;SDS011;35394;54.282;10.070;2024-03-02T00:19:05;6.07;;;4.72;;
35028;SDS011;35394;54.282;10.070;2024-03-02T00:19:38;6.60;;;5.20;;
35028;SDS011;35394;54.282;10.070;2024-03-02T00:20:09;6.75;;;5.10;;
35028;SDS011;35394;54.282;10.070;2024-03-02T00:20:40;6.60;;;5.00;;
35028;SDS011;35394;54.282;10.070;2024-03-02T00:21:11;6.75;;;4.93;;
35028;SDS011;35394;54.282;10.070;2024-03-02T00:21:43;6.20;;;4.93;;
35028;SDS011;35394;54.282;10.070;2024-03-02T00:22:13;6.20;;;4.80;;
35028;SDS011;35394;54.282;10.070;2024-03-02T00:22:44;7.05;;;5.30;;
35028;SDS011;35394;54.282;10.070;2024-03-02T00:23:15;6.40;;;5.00;;
35028;SDS011;35394;54.282;10.070;2024-03-02T00:23:47;7.22;;;5.45;;
35028;SDS011;35394;54.282;10.070;2024-03-02T00:24:30;6.85;;;5.35;;
35028;SDS011;35394;54.282;10.070;2024-03-02T00:25:03;6.43;;;5.07;;
35028;SDS011;35394;54.282;10.070;2024-03-02T00:25:41;7.20;;;5.30;;
35028;SDS011;35394;54.282;10.070;2024-03-02T00:26:17;7.07;;;5.70;;
35028;SDS011;35394;54.282;10.070;2024-03-02T00:26:47;7.20;;;5.50;;
35028;SDS011;35394;54.282;10.070;2024-03-02T00:27:18;7.53;;;5.90;;
35028;SDS011;35394;54.282;10.070;2024-03-02T00:27:50;8.15;;;5.82;;
35028;SDS011;35394;54.282;10.070;2024-03-02T00:28:21;8.00;;;6.20;;
35028;SDS011;35394;54.282;10.070;2024-03-02T00:28:56;9.07;;;6.47;;
35028;SDS011;35394;54.282;10.070;2024-03-02T00:29:27;8.95;;;6.78;;
35028;SDS011;35394;54.282;10.070;2024-03-02T00:29:58;8.73;;;6.60;;
35028;SDS011;35394;54.282;10.070;2024-03-02T00:31:31;8.07;;;6.28;;
35028;SDS011;35394;54.282;10.070;2024-03-02T00:31:33;8.23;;;6.32;;
35028;SDS011;35394;54.282;10.070;2024-03-02T00:32:04;7.70;;;5.87;;
35028;SDS011;35394;54.282;10.070;2024-03-02T00:32:43;7.50;;;5.68;;
35028;SDS011;35394;54.282;10.070;2024-03-02T00:33:13;7.80;;;5.70;;
35028;SDS011;35394;54.282;10.070;2024-03-02T00:34:15;7.18;;;5.50;;
35028;SDS011;35394;54.282;10.070;2024-03-02T00:34:47;7.10;;;5.57;;
35028;SDS011;35394;54.282;10.070;2024-03-02T00:35:18;6.75;;;5.43;;
35028;SDS011;35394;54.282;10.070;2024-03-02T00:35:49;7.35;;;5.60;;
35028;SDS011;35394;54.282;10.070;2024-03-02T00:36:26;6.90;;;5.43;;
35028;SDS011;35394;54.282;10.070;2024-03-02T00:36:57;6.68;;;5.20;;
35028;SDS011;35394;54.282;10.070;2024-03-02T00:37:29;6.90;;;5.40;;
35028;SDS011;35394;54.282;10.070;2024-03-02T00:38:06;7.80;;;5.80;;
35028;SDS011;35394;54.282;10.070;2024-03-02T00:38:42;7.60;;;5.60;;
35028;SDS011;35394;54.282;10.070;2024-03-02T00:39:17;7.30;;;5.43;;
35028;SDS011;35394;54.282;10.070;2024-03-02T00:39:48;6.82;;;5.20;;
35028;SDS011;35394;54.282;10.070;2024-03-02T00:40:19;7.30;;;5.20;;
35028;SDS011;35394;54.282;10.070;2024-03-02T00:40:50;7.82;;;5.78;;
35028;SDS011;35394;54.282;10.070;2024-03-02T00:41:22;7.03;;;5.53;;
35028;SDS011;35394;54.282;10.070;2024-03-02T00:42:00;7.20;;;5.43;;
35028;SDS011;35394;54.282;10.070;2024-03-02T00:42:31;7.27;;;5.57;;
35028;SDS011;35394;54.282;10.070;2024-03-02T00:43:02;6.97;;;5.22;;
35028;SDS011;35394;54.282;10.070;2024-03-02T00:43:56;7.13;;;5.45;;
35028;SDS011;35394;54.282;10.070;2024-03-02T00:44:35;6.35;;;4.95;;
35028;SDS011;35394;54.282;10.070;2024-03-02T00:45:07;7.28;;;5.60;;
35028;SDS011;35394;54.282;10.070;2024-03-02T00:45:39;6.70;;;5.20;;
35028;SDS011;35394;54.282;10.070;2024-03-02T00:46:13;6.43;;;5.18;;
35028;SDS011;35394;54.282;10.070;2024-03-02T00:46:53;6.30;;;4.90;;
35028;SDS011;35394;54.282;10.070;2024-03-02T00:47:24;6.53;;;5.13;;
35028;SDS011;35394;54.282;10.070;2024-03-02T00:47:54;6.70;;;4.90;;
35028;SDS011;35394;54.282;10.070;2024-03-02T00:48:25;6.60;;;5.00;;
35028;SDS011;35394;54.282;10.070;2024-03-02T00:49:30;6.78;;;5.10;;
35028;SDS011;35394;54.282;10.070;2024-03-02T00:50:00;7.53;;;5.50;;
35028;SDS011;35394;54.282;10.070;2024-03-02T00:50:31;6.90;;;5.47;;
35028;SDS011;35394;54.282;10.070;2024-03-02T00:51:03;8.18;;;5.90;;
35028;SDS011;35394;54.282;10.070;2024-03-02T00:51:37;7.05;;;5.53;;
35028;SDS011;35394;54.282;10.070;2024-03-02T00:52:07;7.00;;;5.30;;
35028;SDS011;35394;54.282;10.070;2024-03-02T00:52:38;6.50;;;5.40;;
35028;SDS011;35394;54.282;10.070;2024-03-02T00:53:12;7.20;;;5.38;;
35028;SDS011;35394;54.282;10.070;2024-03-02T00:53:42;7.45;;;5.72;;
35028;SDS011;35394;54.282;10.070;2024-03-02T00:54:13;7.95;;;6.10;;
35028;SDS011;35394;54.282;10.070;2024-03-02T00:54:44;7.80;;;5.72;;
35028;SDS011;35394;54.282;10.070;2024-03-02T00:55:14;8.50;;;6.23;;
35028;SDS011;35394;54.282;10.070;2024-03-02T00:55:45;9.00;;;6.80;;
35028;SDS011;35394;54.282;10.070;2024-03-02T00:56:18;9.63;;;6.95;;
35028;SDS011;35394;54.282;10.070;2024-03-02T00:56:48;9.43;;;6.53;;
35028;SDS011;35394;54.282;10.070;2024-03-02T00:57:19;8.82;;;6.80;;
35028;SDS011;35394;54.282;10.070;2024-03-02T00:57:50;7.95;;;6.32;;
35028;SDS011;35394;54.282;10.070;2024-03-02T00:58:21;9.75;;;6.80;;
35028;SDS011;35394;54.282;10.070;2024-03-02T00:58:51;9.00;;;6.90;;
35028;SDS011;35394;54.282;10.070;2024-03-02T00:59:22;9.80;;;7.18;;
35028;SDS011;35394;54.282;10.070;2024-03-02T00:59:53;8.98;;;6.90;;
35028;SDS011;35394;54.282;10.070;2024-03-02T01:00:23;8.75;;;6.82;;
35028;SDS011;35394;54.282;10.070;2024-03-02T01:00:54;8.70;;;6.80;;
35028;SDS011;35394;54.282;10.070;2024-03-02T01:01:25;10.85;;;7.82;;
35028;SDS011;35394;54.282;10.070;2024-03-02T01:01:56;10.15;;;7.55;;
35028;SDS011;35394;54.282;10.070;2024-03-02T01:02:26;10.53;;;7.80;;
35028;SDS011;35394;54.282;10.070;2024-03-02T01:02:59;11.13;;;7.90;;
35028;SDS011;35394;54.282;10.070;2024-03-02T01:03:30;10.30;;;7.65;;
35028;SDS011;35394;54.282;10.070;2024-03-02T01:04:02;10.45;;;7.78;;
35028;SDS011;35394;54.282;10.070;2024-03-02T01:04:32;9.70;;;7.40;;
35028;SDS011;35394;54.282;10.070;2024-03-02T01:05:03;10.40;;;7.68;;
35028;SDS011;35394;54.282;10.070;2024-03-02T01:05:35;9.73;;;7.43;;
35028;SDS011;35394;54.282;10.070;2024-03-02T01:06:06;11.15;;;8.02;;
35028;SDS011;35394;54.282;10.070;2024-03-02T01:06:37;10.40;;;7.93;;
35028;SDS011;35394;54.282;10.070;2024-03-02T01:07:07;10.30;;;7.78;;
35028;SDS011;35394;54.282;10.070;2024-03-02T01:07:38;10.67;;;8.07;;
35028;SDS011;35394;54.282;10.070;2024-03-02T01:08:09;9.63;;;7.80;;
35028;SDS011;35394;54.282;10.070;2024-03-02T01:08:40;9.55;;;7.28;;
35028;SDS011;35394;54.282;10.070;2024-03-02T01:09:11;9.85;;;7.60;;
35028;SDS011;35394;54.282;10.070;2024-03-02T01:09:42;8.95;;;6.80;;
35028;SDS011;35394;54.282;10.070;2024-03-02T01:10:13;10.70;;;7.60;;
35028;SDS011;35394;54.282;10.070;2024-03-02T01:10:43;10.23;;;7.78;;
35028;SDS011;35394;54.282;10.070;2024-03-02T01:11:14;9.17;;;7.30;;
35028;SDS011;35394;54.282;10.070;2024-03-02T01:11:44;10.60;;;7.50;;
35028;SDS011;35394;54.282;10.070;2024-03-02T01:12:15;10.77;;;7.90;;
35028;SDS011;35394;54.282;10.070;2024-03-02T01:12:46;9.30;;;7.45;;
35028;SDS011;35394;54.282;10.070;2024-03-02T01:13:16;9.18;;;7.13;;
35028;SDS011;35394;54.282;10.070;2024-03-02T01:13:47;9.47;;;7.00;;
35028;SDS011;35394;54.282;10.070;2024-03-02T01:14:17;9.88;;;7.30;;
35028;SDS011;35394;54.282;10.070;2024-03-02T01:14:48;9.00;;;6.90;;
35028;SDS011;35394;54.282;10.070;2024-03-02T01:15:18;9.77;;;7.05;;
35028;SDS011;35394;54.282;10.070;2024-03-02T01:15:49;8.85;;;6.50;;
35028;SDS011;35394;54.282;10.070;2024-03-02T01:16:20;8.70;;;6.57;;
35028;SDS011;35394;54.282;10.070;2024-03-02T01:16:51;8.30;;;6.30;;
35028;SDS011;35394;54.282;10.070;2024-03-02T01:17:21;8.57;;;6.35;;
35028;SDS011;35394;54.282;10.070;2024-03-02T01:17:52;9.02;;;6.68;;
35028;SDS011;35394;54.282;10.070;2024-03-02T01:18:23;10.33;;;7.37;;
35028;SDS011;35394;54.282;10.070;2024-03-02T01:18:53;9.15;;;6.68;;
35028;SDS011;35394;54.282;10.070;2024-03-02T01:19:24;9.02;;;6.70;;
35028;SDS011;35394;54.282;10.070;2024-03-02T01:19:54;8.60;;;6.50;;
35028;SDS011;35394;54.282;10.070;2024-03-02T01:20:25;7.90;;;6.15;;
35028;SDS011;35394;54.282;10.070;2024-03-02T01:20:56;9.03;;;6.70;;
35028;SDS011;35394;54.282;10.070;2024-03-02T01:21:26;9.57;;;7.28;;
35028;SDS011;35394;54.282;10.070;2024-03-02T01:21:57;9.05;;;6.88;;
35028;SDS011;35394;54.282;10.070;2024-03-02T01:22:27;8.40;;;6.60;;
35028;SDS011;35394;54.282;10.070;2024-03-02T01:22:58;9.52;;;7.28;;
35028;SDS011;35394;54.282;10.070;2024-03-02T01:23:29;9.07;;;6.83;;
35028;SDS011;35394;54.282;10.070;2024-03-02T01:23:59;8.82;;;6.72;;
35028;SDS011;35394;54.282;10.070;2024-03-02T01:24:30;8.57;;;6.45;;
35028;SDS011;35394;54.282;10.070;2024-03-02T01:25:01;8.88;;;6.43;;
35028;SDS011;35394;54.282;10.070;2024-03-02T01:25:32;9.20;;;6.83;;
35028;SDS011;35394;54.282;10.070;2024-03-02T01:26:02;8.40;;;6.55;;
35028;SDS011;35394;54.282;10.070;2024-03-02T01:26:33;8.23;;;6.30;;
35028;SDS011;35394;54.282;10.070;2024-03-02T01:27:03;8.40;;;6.27;;
35028;SDS011;35394;54.282;10.070;2024-03-02T01:27:34;7.72;;;6.30;;
35028;SDS011;35394;54.282;10.070;2024-03-02T01:28:05;7.60;;;6.00;;
35028;SDS011;35394;54.282;10.070;2024-03-02T01:28:35;8.07;;;6.15;;
35028;SDS011;35394;54.282;10.070;2024-03-02T01:29:06;8.63;;;6.50;;
35028;SDS011;35394;54.282;10.070;2024-03-02T01:29:36;8.40;;;6.50;;
35028;SDS011;35394;54.282;10.070;2024-03-02T01:30:07;8.35;;;6.30;;
35028;SDS011;35394;54.282;10.070;2024-03-02T01:30:38;7.68;;;6.05;;
35028;SDS011;35394;54.282;10.070;2024-03-02T01:31:08;7.50;;;6.10;;
35028;SDS011;35394;54.282;10.070;2024-03-02T01:31:39;7.47;;;5.88;;
35028;SDS011;35394;54.282;10.070;2024-03-02T01:32:12;7.47;;;5.60;;
35028;SDS011;35394;54.282;10.070;2024-03-02T01:32:42;7.47;;;5.80;;
35028;SDS011;35394;54.282;10.070;2024-03-02T01:33:13;6.93;;;5.32;;
35028;SDS011;35394;54.282;10.070;2024-03-02T01:33:43;7.53;;;5.80;;
35028;SDS011;35394;54.282;10.070;2024-03-02T01:34:14;8.25;;;6.20;;
35028;SDS011;35394;54.282;10.070;2024-03-02T01:34:44;8.50;;;6.30;;
35028;SDS011;35394;54.282;10.070;2024-03-02T01:35:15;7.77;;;6.20;;
35028;SDS011;35394;54.282;10.070;2024-03-02T01:35:46;7.85;;;6.03;;
35028;SDS011;35394;54.282;10.070;2024-03-02T01:36:17;7.95;;;6.05;;
35028;SDS011;35394;54.282;10.070;2024-03-02T01:36:48;8.43;;;6.10;;
35028;SDS011;35394;54.282;10.070;2024-03-02T01:37:19;7.57;;;5.78;;
35028;SDS011;35394;54.282;10.070;2024-03-02T01:37:49;8.10;;;6.23;;
35028;SDS011;35394;54.282;10.070;2024-03-02T01:38:20;8.23;;;6.30;;
35028;SDS011;35394;54.282;10.070;2024-03-02T01:38:50;8.00;;;6.27;;
35028;SDS011;35394;54.282;10.070;2024-03-02T01:39:21;7.63;;;6.07;;
35028;SDS011;35394;54.282;10.070;2024-03-02T01:39:51;7.67;;;5.90;;
35028;SDS011;35394;54.282;10.070;2024-03-02T01:40:22;8.10;;;6.00;;
35028;SDS011;35394;54.282;10.070;2024-03-02T01:40:56;8.52;;;6.53;;
35028;SDS011;35394;54.282;10.070;2024-03-02T01:41:27;7.90;;;6.20;;
35028;SDS011;35394;54.282;10.070;2024-03-02T01:41:57;7.97;;;6.10;;
35028;SDS011;35394;54.282;10.070;2024-03-02T01:42:28;8.07;;;6.07;;
35028;SDS011;35394;54.282;10.070;2024-03-02T01:42:59;7.68;;;5.82;;
35028;SDS011;35394;54.282;10.070;2024-03-02T01:43:29;7.93;;;6.13;;
35028;SDS011;35394;54.282;10.070;2024-03-02T01:44:00;8.10;;;6.13;;
35028;SDS011;35394;54.282;10.070;2024-03-02T01:44:30;8.27;;;6.05;;
35028;SDS011;35394;54.282;10.070;2024-03-02T01:45:01;8.00;;;6.27;;
35028;SDS011;35394;54.282;10.070;2024-03-02T01:45:32;8.25;;;6.38;;
35028;SDS011;35394;54.282;10.070;2024-03-02T01:46:03;7.55;;;6.00;;
35028;SDS011;35394;54.282;10.070;2024-03-02T01:46:34;8.50;;;6.70;;
35028;SDS011;35394;54.282;10.070;2024-03-02T01:47:04;7.82;;;6.13;;
35028;SDS011;35394;54.282;10.070;2024-03-02T01:47:35;8.10;;;6.37;;
35028;SDS011;35394;54.282;10.070;2024-03-02T01:48:06;7.93;;;6.00;;
35028;SDS011;35394;54.282;10.070;2024-03-02T01:48:37;7.95;;;6.13;;
35028;SDS011;35394;54.282;10.070;2024-03-02T01:49:08;7.90;;;6.30;;
35028;SDS011;35394;54.282;10.070;2024-03-02T01:49:38;8.25;;;6.20;;
35028;SDS011;35394;54.282;10.070;2024-03-02T01:50:11;8.15;;;5.95;;
35028;SDS011;35394;54.282;10.070;2024-03-02T01:50:41;7.72;;;6.00;;
35028;SDS011;35394;54.282;10.070;2024-03-02T01:51:12;7.32;;;5.68;;
35028;SDS011;35394;54.282;10.070;2024-03-02T01:51:43;7.37;;;5.70;;
35028;SDS011;35394;54.282;10.070;2024-03-02T01:52:13;7.10;;;5.57;;
35028;SDS011;35394;54.282;10.070;2024-03-02T01:52:44;7.47;;;5.70;;
35028;SDS011;35394;54.282;10.070;2024-03-02T01:53:14;7.70;;;5.53;;
35028;SDS011;35394;54.282;10.070;2024-03-02T01:53:45;7.50;;;5.50;;
35028;SDS011;35394;54.282;10.070;2024-03-02T01:54:15;7.85;;;5.93;;
35028;SDS011;35394;54.282;10.070;2024-03-02T01:54:46;8.20;;;5.90;;
35028;SDS011;35394;54.282;10.070;2024-03-02T01:55:16;7.43;;;5.80;;
35028;SDS011;35394;54.282;10.070;2024-03-02T01:55:47;8.17;;;5.90;;
35028;SDS011;35394;54.282;10.070;2024-03-02T01:56:17;7.67;;;5.80;;
35028;SDS011;35394;54.282;10.070;2024-03-02T01:56:48;7.82;;;6.03;;
35028;SDS011;35394;54.282;10.070;2024-03-02T01:57:18;7.43;;;5.83;;
35028;SDS011;35394;54.282;10.070;2024-03-02T01:57:49;7.65;;;5.70;;
35028;SDS011;35394;54.282;10.070;2024-03-02T01:58:22;7.68;;;5.47;;
35028;SDS011;35394;54.282;10.070;2024-03-02T01:58:53;7.65;;;5.82;;
35028;SDS011;35394;54.282;10.070;2024-03-02T01:59:23;7.10;;;5.60;;
35028;SDS011;35394;54.282;10.070;2024-03-02T01:59:54;6.05;;;5.10;;
35028;SDS011;35394;54.282;10.070;2024-03-02T02:00:25;6.88;;;5.30;;
35028;SDS011;35394;54.282;10.070;2024-03-02T02:00:56;7.25;;;5.60;;
35028;SDS011;35394;54.282;10.070;2024-03-02T02:01:27;7.30;;;5.72;;
35028;SDS011;35394;54.282;10.070;2024-03-02T02:01:58;7.47;;;5.67;;
35028;SDS011;35394;54.282;10.070;2024-03-02T02:02:28;7.80;;;5.90;;
35028;SDS011;35394;54.282;10.070;2024-03-02T02:02:59;7.65;;;5.80;;
35028;SDS011;35394;54.282;10.070;2024-03-02T02:03:29;8.30;;;5.97;;
35028;SDS011;35394;54.282;10.070;2024-03-02T02:04:00;8.40;;;6.00;;
35028;SDS011;35394;54.282;10.070;2024-03-02T02:04:31;8.00;;;6.10;;
35028;SDS011;35394;54.282;10.070;2024-03-02T02:05:01;8.03;;;6.10;;
35028;SDS011;35394;54.282;10.070;2024-03-02T02:05:32;7.88;;;6.05;;
35028;SDS011;35394;54.282;10.070;2024-03-02T02:06:04;8.50;;;6.47;;
35028;SDS011;35394;54.282;10.070;2024-03-02T02:06:34;8.43;;;6.30;;
35028;SDS011;35394;54.282;10.070;2024-03-02T02:07:05;7.70;;;5.97;;
35028;SDS011;35394;54.282;10.070;2024-03-02T02:07:36;7.75;;;5.90;;
35028;SDS011;35394;54.282;10.070;2024-03-02T02:08:07;7.43;;;5.63;;
35028;SDS011;35394;54.282;10.070;2024-03-02T02:08:38;7.97;;;6.10;;
35028;SDS011;35394;54.282;10.070;2024-03-02T02:09:08;7.40;;;5.90;;
35028;SDS011;35394;54.282;10.070;2024-03-02T02:09:39;7.95;;;5.90;;
35028;SDS011;35394;54.282;10.070;2024-03-02T02:10:11;8.40;;;6.00;;
35028;SDS011;35394;54.282;10.070;2024-03-02T02:10:41;7.93;;;5.77;;
35028;SDS011;35394;54.282;10.070;2024-03-02T02:11:14;7.93;;;6.10;;
35028;SDS011;35394;54.282;10.070;2024-03-02T02:11:45;8.43;;;6.55;;
35028;SDS011;35394;54.282;10.070;2024-03-02T02:12:16;8.57;;;6.50;;
35028;SDS011;35394;54.282;10.070;2024-03-02T02:12:46;8.18;;;6.00;;
35028;SDS011;35394;54.282;10.070;2024-03-02T02:13:17;8.03;;;6.00;;
35028;SDS011;35394;54.282;10.070;2024-03-02T02:13:48;8.55;;;6.35;;
35028;SDS011;35394;54.282;10.070;2024-03-02T02:14:18;8.77;;;6.40;;
35028;SDS011;35394;54.282;10.070;2024-03-02T02:14:49;8.73;;;6.30;;
35028;SDS011;35394;54.282;10.070;2024-03-02T02:15:27;8.27;;;6.22;;
35028;SDS011;35394;54.282;10.070;2024-03-02T02:16:07;7.93;;;6.30;;
35028;SDS011;35394;54.282;10.070;2024-03-02T02:16:38;7.85;;;5.93;;
35028;SDS011;35394;54.282;10.070;2024-03-02T02:17:09;7.75;;;5.90;;
35028;SDS011;35394;54.282;10.070;2024-03-02T02:17:39;8.13;;;6.18;;
35028;SDS011;35394;54.282;10.070;2024-03-02T02:18:10;8.00;;;6.40;;
35028;SDS011;35394;54.282;10.070;2024-03-02T02:18:40;7.63;;;5.85;;
35028;SDS011;35394;54.282;10.070;2024-03-02T02:19:11;7.70;;;5.97;;
35028;SDS011;35394;54.282;10.070;2024-03-02T02:19:42;8.15;;;6.30;;
35028;SDS011;35394;54.282;10.070;2024-03-02T02:20:12;8.00;;;6.07;;
35028;SDS011;35394;54.282;10.070;2024-03-02T02:20:43;7.88;;;5.90;;
35028;SDS011;35394;54.282;10.070;2024-03-02T02:21:14;7.60;;;5.87;;
35028;SDS011;35394;54.282;10.070;2024-03-02T02:21:45;7.53;;;5.90;;
35028;SDS011;35394;54.282;10.070;2024-03-02T02:22:15;8.13;;;6.15;;
35028;SDS011;35394;54.282;10.070;2024-03-02T02:22:53;7.67;;;5.97;;
35028;SDS011;35394;54.282;10.070;2024-03-02T02:23:25;8.13;;;6.13;;
35028;SDS011;35394;54.282;10.070;2024-03-02T02:23:55;8.00;;;6.10;;
35028;SDS011;35394;54.282;10.070;2024-03-02T02:24:26;7.77;;;6.27;;
35028;SDS011;35394;54.282;10.070;2024-03-02T02:24:56;8.02;;;6.18;;
35028;SDS011;35394;54.282;10.070;2024-03-02T02:25:27;8.05;;;6.18;;
35028;SDS011;35394;54.282;10.070;2024-03-02T02:25:58;7.43;;;5.78;;
35028;SDS011;35394;54.282;10.070;2024-03-02T02:26:29;7.83;;;6.23;;
35028;SDS011;35394;54.282;10.070;2024-03-02T02:27:00;8.55;;;6.47;;
35028;SDS011;35394;54.282;10.070;2024-03-02T02:27:30;7.88;;;6.05;;
35028;SDS011;35394;54.282;10.070;2024-03-02T02:28:01;8.43;;;6.40;;
35028;SDS011;35394;54.282;10.070;2024-03-02T02:28:32;8.65;;;6.57;;
35028;SDS011;35394;54.282;10.070;2024-03-02T02:29:02;8.50;;;6.22;;
35028;SDS011;35394;54.282;10.070;2024-03-02T02:29:33;8.32;;;6.60;;
35028;SDS011;35394;54.282;10.070;2024-03-02T02:30:04;8.33;;;6.57;;
35028;SDS011;35394;54.282;10.070;2024-03-02T02:30:35;8.30;;;6.35;;
35028;SDS011;35394;54.282;10.070;2024-03-02T02:31:05;8.13;;;6.22;;
35028;SDS011;35394;54.282;10.070;2024-03-02T02:31:36;8.38;;;6.28;;
35028;SDS011;35394;54.282;10.070;2024-03-02T02:32:08;8.32;;;6.28;;
35028;SDS011;35394;54.282;10.070;2024-03-02T02:32:39;8.77;;;6.57;;
35028;SDS011;35394;54.282;10.070;2024-03-02T02:33:09;8.17;;;6.33;;
35028;SDS011;35394;54.282;10.070;2024-03-02T02:33:40;8.23;;;6.20;;
35028;SDS011;35394;54.282;10.070;2024-03-02T02:34:11;7.63;;;6.00;;
35028;SDS011;35394;54.282;10.070;2024-03-02T02:34:41;8.47;;;6.37;;
35028;SDS011;35394;54.282;10.070;2024-03-02T02:35:12;7.55;;;6.18;;
35028;SDS011;35394;54.282;10.070;2024-03-02T02:35:42;8.33;;;6.07;;
35028;SDS011;35394;54.282;10.070;2024-03-02T02:36:13;8.35;;;6.35;;
35028;SDS011;35394;54.282;10.070;2024-03-02T02:36:44;8.32;;;6.47;;
35028;SDS011;35394;54.282;10.070;2024-03-02T02:37:14;8.73;;;6.33;;
35028;SDS011;35394;54.282;10.070;2024-03-02T02:37:45;9.10;;;6.80;;
35028;SDS011;35394;54.282;10.070;2024-03-02T02:38:17;8.85;;;6.47;;
35028;SDS011;35394;54.282;10.070;2024-03-02T02:38:47;8.90;;;6.40;;
35028;SDS011;35394;54.282;10.070;2024-03-02T02:39:20;8.55;;;6.43;;
35028;SDS011;35394;54.282;10.070;2024-03-02T02:39:52;7.85;;;6.30;;
35028;SDS011;35394;54.282;10.070;2024-03-02T02:40:22;8.73;;;6.60;;
35028;SDS011;35394;54.282;10.070;2024-03-02T02:40:53;8.30;;;6.33;;
35028;SDS011;35394;54.282;10.070;2024-03-02T02:41:24;8.40;;;6.50;;
35028;SDS011;35394;54.282;10.070;2024-03-02T02:41:54;8.17;;;6.20;;
35028;SDS011;35394;54.282;10.070;2024-03-02T02:42:25;8.13;;;6.40;;
35028;SDS011;35394;54.282;10.070;2024-03-02T02:42:56;8.55;;;6.38;;
35028;SDS011;35394;54.282;10.070;2024-03-02T02:43:27;7.65;;;5.90;;
35028;SDS011;35394;54.282;10.070;2024-03-02T02:43:57;8.50;;;6.57;;
35028;SDS011;35394;54.282;10.070;2024-03-02T02:44:28;8.00;;;6.30;;
35028;SDS011;35394;54.282;10.070;2024-03-02T02:44:58;8.88;;;6.70;;
35028;SDS011;35394;54.282;10.070;2024-03-02T02:45:29;8.23;;;6.33;;
35028;SDS011;35394;54.282;10.070;2024-03-02T02:46:00;8.70;;;6.30;;
35028;SDS011;35394;54.282;10.070;2024-03-02T02:46:31;7.90;;;6.30;;
35028;SDS011;35394;54.282;10.070;2024-03-02T02:47:01;8.83;;;6.63;;
35028;SDS011;35394;54.282;10.070;2024-03-02T02:47:32;8.30;;;6.47;;
35028;SDS011;35394;54.282;10.070;2024-03-02T02:48:05;8.93;;;6.70;;
35028;SDS011;35394;54.282;10.070;2024-03-02T02:48:35;8.45;;;6.40;;
35028;SDS011;35394;54.282;10.070;2024-03-02T02:49:06;8.20;;;6.22;;
35028;SDS011;35394;54.282;10.070;2024-03-02T02:49:37;8.63;;;6.47;;
35028;SDS011;35394;54.282;10.070;2024-03-02T02:50:07;8.00;;;6.18;;
35028;SDS011;35394;54.282;10.070;2024-03-02T02:50:38;7.97;;;6.30;;
35028;SDS011;35394;54.282;10.070;2024-03-02T02:51:09;8.63;;;6.47;;
35028;SDS011;35394;54.282;10.070;2024-03-02T02:51:40;8.23;;;6.30;;
35028;SDS011;35394;54.282;10.070;2024-03-02T02:52:10;8.15;;;6.00;;
35028;SDS011;35394;54.282;10.070;2024-03-02T02:52:41;8.00;;;6.17;;
35028;SDS011;35394;54.282;10.070;2024-03-02T02:53:12;8.55;;;6.60;;
35028;SDS011;35394;54.282;10.070;2024-03-02T02:53:42;9.50;;;6.57;;
35028;SDS011;35394;54.282;10.070;2024-03-02T02:54:13;7.75;;;6.20;;
35028;SDS011;35394;54.282;10.070;2024-03-02T02:54:43;7.97;;;6.03;;
35028;SDS011;35394;54.282;10.070;2024-03-02T02:55:14;7.70;;;5.78;;
35028;SDS011;35394;54.282;10.070;2024-03-02T02:55:45;7.75;;;5.90;;
35028;SDS011;35394;54.282;10.070;2024-03-02T02:56:16;7.40;;;5.70;;
35028;SDS011;35394;54.282;10.070;2024-03-02T02:56:47;7.80;;;5.93;;
35028;SDS011;35394;54.282;10.070;2024-03-02T02:57:17;7.80;;;6.00;;
35028;SDS011;35394;54.282;10.070;2024-03-02T02:57:48;7.67;;;5.90;;
35028;SDS011;35394;54.282;10.070;2024-03-02T02:58:18;7.60;;;5.72;;
35028;SDS011;35394;54.282;10.070;2024-03-02T02:58:49;7.50;;;5.85;;
35028;SDS011;35394;54.282;10.070;2024-03-02T02:59:19;8.80;;;6.67;;
35028;SDS011;35394;54.282;10.070;2024-03-02T02:59:50;9.48;;;7.22;;
35028;SDS011;35394;54.282;10.070;2024-03-02T03:00:20;10.07;;;7.47;;
35028;SDS011;35394;54.282;10.070;2024-03-02T03:00:52;9.65;;;7.32;;
35028;SDS011;35394;54.282;10.070;2024-03-02T03:01:26;11.02;;;7.82;;
35028;SDS011;35394;54.282;10.070;2024-03-02T03:01:57;10.05;;;7.38;;
35028;SDS011;35394;54.282;10.070;2024-03-02T03:02:27;10.53;;;7.93;;
35028;SDS011;35394;54.282;10.070;2024-03-02T03:02:58;10.95;;;8.13;;
35028;SDS011;35394;54.282;10.070;2024-03-02T03:03:28;10.50;;;7.83;;
35028;SDS011;35394;54.282;10.070;2024-03-02T03:03:59;10.50;;;7.72;;
35028;SDS011;35394;54.282;10.070;2024-03-02T03:04:29;9.53;;;7.50;;
35028;SDS011;35394;54.282;10.070;2024-03-02T03:05:00;9.43;;;7.20;;
35028;SDS011;35394;54.282;10.070;2024-03-02T03:05:30;8.75;;;7.00;;
35028;SDS011;35394;54.282;10.070;2024-03-02T03:06:01;9.57;;;6.93;;
35028;SDS011;35394;54.282;10.070;2024-03-02T03:06:32;10.35;;;7.50;;
35028;SDS011;35394;54.282;10.070;2024-03-02T03:07:02;9.52;;;7.25;;
35028;SDS011;35394;54.282;10.070;2024-03-02T03:07:33;9.40;;;7.13;;
35028;SDS011;35394;54.282;10.070;2024-03-02T03:08:07;8.43;;;6.70;;